sensor_id;sensor_type;location;lat;lon;timestamp;temperature;humidity
22544;DHT22;11438;52.044;8.716;2022-12-18T00:01:23;-2.80;95.20
22544;DHT22;11438;52.044;8.716;2022-12-18T00:03:50;-2.80;95.20
22544;DHT22;11438;52.044;8.716;2022-12-18T00:06:16;-2.80;95.20
22544;DHT22;11438;52.044;8.716;2022-12-18T00:08:42;-2.80;95.30
22544;DHT22;11438;52.044;8.716;2022-12-18T00:11:11;-2.80;95.30
22544;DHT22;11438;52.044;8.716;2022-12-18T00:13:37;-2.80;95.30
22544;DHT22;11438;52.044;8.716;2022-12-18T00:16:06;-2.80;95.30
22544;DHT22;11438;52.044;8.716;2022-12-18T00:18:32;-2.80;95.30
22544;DHT22;11438;52.044;8.716;2022-12-18T00:21:02;-2.80;95.30
22544;DHT22;11438;52.044;8.716;2022-12-18T00:23:30;-2.80;95.30
22544;DHT22;11438;52.044;8.716;2022-12-18T00:26:02;-2.80;95.30
22544;DHT22;11438;52.044;8.716;2022-12-18T00:28:28;-2.80;95.30
22544;DHT22;11438;52.044;8.716;2022-12-18T00:31:04;-2.80;95.30
22544;DHT22;11438;52.044;8.716;2022-12-18T00:33:30;-2.90;95.30
22544;DHT22;11438;52.044;8.716;2022-12-18T00:36:04;-2.90;95.30
22544;DHT22;11438;52.044;8.716;2022-12-18T00:38:30;-2.90;95.40
22544;DHT22;11438;52.044;8.716;2022-12-18T00:40:56;-2.90;95.40
22544;DHT22;11438;52.044;8.716;2022-12-18T00:43:22;-2.90;95.40
22544;DHT22;11438;52.044;8.716;2022-12-18T00:45:47;-2.90;95.40
22544;DHT22;11438;52.044;8.716;2022-12-18T00:48:13;-2.90;95.40
22544;DHT22;11438;52.044;8.716;2022-12-18T00:50:38;-2.90;95.40
22544;DHT22;11438;52.044;8.716;2022-12-18T00:53:04;-2.90;95.40
22544;DHT22;11438;52.044;8.716;2022-12-18T00:55:30;-2.90;95.40
22544;DHT22;11438;52.044;8.716;2022-12-18T00:57:55;-2.90;95.40
22544;DHT22;11438;52.044;8.716;2022-12-18T01:00:21;-2.90;95.50
22544;DHT22;11438;52.044;8.716;2022-12-18T01:02:47;-2.90;95.50
22544;DHT22;11438;52.044;8.716;2022-12-18T01:05:13;-3.00;95.50
22544;DHT22;11438;52.044;8.716;2022-12-18T01:07:39;-3.00;95.50
22544;DHT22;11438;52.044;8.716;2022-12-18T01:10:06;-3.00;95.50
22544;DHT22;11438;52.044;8.716;2022-12-18T01:12:33;-3.00;95.50
22544;DHT22;11438;52.044;8.716;2022-12-18T01:14:58;-3.00;95.50
22544;DHT22;11438;52.044;8.716;2022-12-18T01:17:24;-3.00;95.60
22544;DHT22;11438;52.044;8.716;2022-12-18T01:19:49;-3.00;95.60
22544;DHT22;11438;52.044;8.716;2022-12-18T01:22:15;-3.00;95.60
22544;DHT22;11438;52.044;8.716;2022-12-18T01:24:40;-3.00;95.60
22544;DHT22;11438;52.044;8.716;2022-12-18T01:27:06;-3.00;95.60
22544;DHT22;11438;52.044;8.716;2022-12-18T01:29:32;-3.00;95.60
22544;DHT22;11438;52.044;8.716;2022-12-18T01:31:57;-3.00;95.60
22544;DHT22;11438;52.044;8.716;2022-12-18T01:34:24;-3.00;95.60
22544;DHT22;11438;52.044;8.716;2022-12-18T01:36:50;-3.00;95.60
22544;DHT22;11438;52.044;8.716;2022-12-18T01:39:18;-3.00;95.60
22544;DHT22;11438;52.044;8.716;2022-12-18T01:41:44;-3.10;95.60
22544;DHT22;11438;52.044;8.716;2022-12-18T01:52:37;-3.10;95.60
22544;DHT22;11438;52.044;8.716;2022-12-18T01:55:05;-3.10;95.60
22544;DHT22;11438;52.044;8.716;2022-12-18T01:57:31;-3.10;95.70
22544;DHT22;11438;52.044;8.716;2022-12-18T02:00:01;-3.10;95.70
22544;DHT22;11438;52.044;8.716;2022-12-18T02:02:28;-3.10;95.60
22544;DHT22;11438;52.044;8.716;2022-12-18T02:04:54;-3.10;95.70
22544;DHT22;11438;52.044;8.716;2022-12-18T02:10:17;-3.10;95.70
22544;DHT22;11438;52.044;8.716;2022-12-18T02:12:48;-3.20;95.70
22544;DHT22;11438;52.044;8.716;2022-12-18T02:15:32;-3.20;95.70
22544;DHT22;11438;52.044;8.716;2022-12-18T02:18:21;-3.20;95.70
22544;DHT22;11438;52.044;8.716;2022-12-18T02:20:58;-3.20;95.70
22544;DHT22;11438;52.044;8.716;2022-12-18T02:26:34;-3.20;95.70
22544;DHT22;11438;52.044;8.716;2022-12-18T02:31:36;-3.20;95.70
22544;DHT22;11438;52.044;8.716;2022-12-18T02:34:06;-3.20;95.70
22544;DHT22;11438;52.044;8.716;2022-12-18T02:36:33;-3.20;95.60
22544;DHT22;11438;52.044;8.716;2022-12-18T02:39:02;-3.20;96.00
22544;DHT22;11438;52.044;8.716;2022-12-18T02:41:30;-3.20;95.60
22544;DHT22;11438;52.044;8.716;2022-12-18T02:43:58;-3.20;95.60
22544;DHT22;11438;52.044;8.716;2022-12-18T02:46:36;-3.20;95.50
22544;DHT22;11438;52.044;8.716;2022-12-18T03:01:20;-3.30;95.40
22544;DHT22;11438;52.044;8.716;2022-12-18T03:03:59;-3.30;95.40
22544;DHT22;11438;52.044;8.716;2022-12-18T03:06:33;-3.30;95.50
22544;DHT22;11438;52.044;8.716;2022-12-18T03:09:12;-3.30;95.50
22544;DHT22;11438;52.044;8.716;2022-12-18T03:11:42;-3.30;95.50
22544;DHT22;11438;52.044;8.716;2022-12-18T03:14:30;-3.30;95.50
22544;DHT22;11438;52.044;8.716;2022-12-18T03:17:01;-3.30;95.50
22544;DHT22;11438;52.044;8.716;2022-12-18T03:19:29;-3.30;95.50
22544;DHT22;11438;52.044;8.716;2022-12-18T03:21:59;-3.30;95.50
22544;DHT22;11438;52.044;8.716;2022-12-18T03:24:27;-3.30;95.40
22544;DHT22;11438;52.044;8.716;2022-12-18T03:27:01;-3.30;95.40
22544;DHT22;11438;52.044;8.716;2022-12-18T03:29:38;-3.30;95.40
22544;DHT22;11438;52.044;8.716;2022-12-18T03:32:13;-3.40;95.30
22544;DHT22;11438;52.044;8.716;2022-12-18T03:34:42;-3.40;95.30
22544;DHT22;11438;52.044;8.716;2022-12-18T03:37:09;-3.40;95.30
22544;DHT22;11438;52.044;8.716;2022-12-18T03:39:36;-3.40;95.30
22544;DHT22;11438;52.044;8.716;2022-12-18T03:44:52;-3.40;95.30
22544;DHT22;11438;52.044;8.716;2022-12-18T03:47:42;-3.40;95.30
22544;DHT22;11438;52.044;8.716;2022-12-18T03:50:16;-3.40;95.30
22544;DHT22;11438;52.044;8.716;2022-12-18T03:53:00;-3.40;95.40
22544;DHT22;11438;52.044;8.716;2022-12-18T03:55:32;-3.40;95.40
22544;DHT22;11438;52.044;8.716;2022-12-18T03:58:01;-3.40;95.50
22544;DHT22;11438;52.044;8.716;2022-12-18T04:00:28;-3.50;95.50
22544;DHT22;11438;52.044;8.716;2022-12-18T04:02:55;-3.40;95.50
22544;DHT22;11438;52.044;8.716;2022-12-18T04:05:22;-3.40;95.60
22544;DHT22;11438;52.044;8.716;2022-12-18T04:07:50;-3.40;95.60
22544;DHT22;11438;52.044;8.716;2022-12-18T04:10:17;-3.40;95.60
22544;DHT22;11438;52.044;8.716;2022-12-18T04:12:43;-3.40;95.60
22544;DHT22;11438;52.044;8.716;2022-12-18T04:15:10;-3.40;95.60
22544;DHT22;11438;52.044;8.716;2022-12-18T04:17:35;-3.40;95.50
22544;DHT22;11438;52.044;8.716;2022-12-18T04:20:02;-3.40;95.50
22544;DHT22;11438;52.044;8.716;2022-12-18T04:22:28;-3.40;95.50
22544;DHT22;11438;52.044;8.716;2022-12-18T04:24:53;-3.40;95.50
22544;DHT22;11438;52.044;8.716;2022-12-18T04:27:19;-3.40;95.50
22544;DHT22;11438;52.044;8.716;2022-12-18T04:29:44;-3.40;95.50
22544;DHT22;11438;52.044;8.716;2022-12-18T04:32:10;-3.40;95.40
22544;DHT22;11438;52.044;8.716;2022-12-18T04:34:35;-3.40;95.40
22544;DHT22;11438;52.044;8.716;2022-12-18T04:37:01;-3.40;95.40
22544;DHT22;11438;52.044;8.716;2022-12-18T04:39:27;-3.40;95.80
22544;DHT22;11438;52.044;8.716;2022-12-18T04:41:52;-3.40;95.40
22544;DHT22;11438;52.044;8.716;2022-12-18T04:44:18;-3.50;95.40
22544;DHT22;11438;52.044;8.716;2022-12-18T04:46:43;-3.50;95.40
22544;DHT22;11438;52.044;8.716;2022-12-18T04:49:09;-3.50;95.40
22544;DHT22;11438;52.044;8.716;2022-12-18T04:51:36;-3.50;95.40
22544;DHT22;11438;52.044;8.716;2022-12-18T04:54:02;-3.50;95.40
22544;DHT22;11438;52.044;8.716;2022-12-18T04:56:28;-3.50;95.50
22544;DHT22;11438;52.044;8.716;2022-12-18T04:58:53;-3.50;95.50
22544;DHT22;11438;52.044;8.716;2022-12-18T05:01:19;-3.50;95.50
22544;DHT22;11438;52.044;8.716;2022-12-18T05:03:45;-3.50;95.50
22544;DHT22;11438;52.044;8.716;2022-12-18T05:06:10;-3.50;95.60
22544;DHT22;11438;52.044;8.716;2022-12-18T05:08:36;-3.50;95.60
22544;DHT22;11438;52.044;8.716;2022-12-18T05:11:10;-3.50;95.60
22544;DHT22;11438;52.044;8.716;2022-12-18T05:13:36;-3.50;95.60
22544;DHT22;11438;52.044;8.716;2022-12-18T05:16:04;-3.50;95.60
22544;DHT22;11438;52.044;8.716;2022-12-18T05:18:30;-3.50;95.60
22544;DHT22;11438;52.044;8.716;2022-12-18T05:20:56;-3.50;95.50
22544;DHT22;11438;52.044;8.716;2022-12-18T05:23:23;-3.50;95.50
22544;DHT22;11438;52.044;8.716;2022-12-18T05:25:53;-3.50;95.50
22544;DHT22;11438;52.044;8.716;2022-12-18T05:28:20;-3.50;95.40
22544;DHT22;11438;52.044;8.716;2022-12-18T05:30:57;-3.50;95.40
22544;DHT22;11438;52.044;8.716;2022-12-18T05:33:24;-3.60;95.30
22544;DHT22;11438;52.044;8.716;2022-12-18T05:35:55;-3.60;95.30
22544;DHT22;11438;52.044;8.716;2022-12-18T05:38:22;-3.60;95.30
22544;DHT22;11438;52.044;8.716;2022-12-18T05:40:49;-3.60;95.30
22544;DHT22;11438;52.044;8.716;2022-12-18T05:43:15;-3.60;95.30
22544;DHT22;11438;52.044;8.716;2022-12-18T05:45:41;-3.60;95.40
22544;DHT22;11438;52.044;8.716;2022-12-18T05:48:07;-3.60;95.40
22544;DHT22;11438;52.044;8.716;2022-12-18T05:50:37;-3.60;95.40
22544;DHT22;11438;52.044;8.716;2022-12-18T05:53:03;-3.60;95.40
22544;DHT22;11438;52.044;8.716;2022-12-18T05:55:33;-3.60;95.40
22544;DHT22;11438;52.044;8.716;2022-12-18T05:57:59;-3.60;95.40
22544;DHT22;11438;52.044;8.716;2022-12-18T06:00:25;-3.60;95.40
22544;DHT22;11438;52.044;8.716;2022-12-18T06:02:51;-3.60;95.40
22544;DHT22;11438;52.044;8.716;2022-12-18T06:05:16;-3.60;95.50
22544;DHT22;11438;52.044;8.716;2022-12-18T06:07:42;-3.60;95.50
22544;DHT22;11438;52.044;8.716;2022-12-18T06:10:07;-3.60;95.50
22544;DHT22;11438;52.044;8.716;2022-12-18T06:12:33;-3.60;95.60
22544;DHT22;11438;52.044;8.716;2022-12-18T06:14:59;-3.60;95.60
22544;DHT22;11438;52.044;8.716;2022-12-18T06:17:32;-3.60;95.70
22544;DHT22;11438;52.044;8.716;2022-12-18T06:19:58;-3.60;95.70
22544;DHT22;11438;52.044;8.716;2022-12-18T06:22:23;-3.60;95.70
22544;DHT22;11438;52.044;8.716;2022-12-18T06:24:49;-3.60;95.80
22544;DHT22;11438;52.044;8.716;2022-12-18T06:27:15;-3.60;95.80
22544;DHT22;11438;52.044;8.716;2022-12-18T06:29:41;-3.60;95.80
22544;DHT22;11438;52.044;8.716;2022-12-18T06:32:06;-3.60;95.80
22544;DHT22;11438;52.044;8.716;2022-12-18T06:34:33;-3.60;95.90
22544;DHT22;11438;52.044;8.716;2022-12-18T06:36:59;-3.60;95.90
22544;DHT22;11438;52.044;8.716;2022-12-18T06:39:26;-3.60;95.90
22544;DHT22;11438;52.044;8.716;2022-12-18T06:41:52;-3.60;95.90
22544;DHT22;11438;52.044;8.716;2022-12-18T06:44:17;-3.60;95.90
22544;DHT22;11438;52.044;8.716;2022-12-18T06:46:43;-3.60;95.90
22544;DHT22;11438;52.044;8.716;2022-12-18T06:49:09;-3.60;95.90
22544;DHT22;11438;52.044;8.716;2022-12-18T06:51:35;-3.60;95.90
22544;DHT22;11438;52.044;8.716;2022-12-18T06:54:00;-3.60;95.90
22544;DHT22;11438;52.044;8.716;2022-12-18T06:56:26;-3.60;95.90
22544;DHT22;11438;52.044;8.716;2022-12-18T06:58:52;-3.60;95.90
22544;DHT22;11438;52.044;8.716;2022-12-18T07:01:17;-3.60;95.90
22544;DHT22;11438;52.044;8.716;2022-12-18T07:03:43;-3.60;95.90
22544;DHT22;11438;52.044;8.716;2022-12-18T07:06:17;-3.60;95.90
22544;DHT22;11438;52.044;8.716;2022-12-18T07:08:44;-3.60;95.90
22544;DHT22;11438;52.044;8.716;2022-12-18T07:11:10;-3.60;95.90
22544;DHT22;11438;52.044;8.716;2022-12-18T07:13:35;-3.60;95.90
22544;DHT22;11438;52.044;8.716;2022-12-18T07:16:09;-3.60;95.90
22544;DHT22;11438;52.044;8.716;2022-12-18T07:18:35;-3.60;95.90
22544;DHT22;11438;52.044;8.716;2022-12-18T07:21:05;-3.60;95.90
22544;DHT22;11438;52.044;8.716;2022-12-18T07:23:33;-3.60;95.90
22544;DHT22;11438;52.044;8.716;2022-12-18T07:26:11;-3.60;95.90
22544;DHT22;11438;52.044;8.716;2022-12-18T07:28:38;-3.60;95.90
22544;DHT22;11438;52.044;8.716;2022-12-18T07:31:05;-3.60;95.90
22544;DHT22;11438;52.044;8.716;2022-12-18T07:33:32;-3.60;96.00
22544;DHT22;11438;52.044;8.716;2022-12-18T07:35:59;-3.60;95.90
22544;DHT22;11438;52.044;8.716;2022-12-18T07:38:25;-3.60;95.90
22544;DHT22;11438;52.044;8.716;2022-12-18T07:40:51;-3.60;95.90
22544;DHT22;11438;52.044;8.716;2022-12-18T07:43:16;-3.60;95.90
22544;DHT22;11438;52.044;8.716;2022-12-18T07:45:42;-3.60;95.90
22544;DHT22;11438;52.044;8.716;2022-12-18T07:48:08;-3.60;95.90
22544;DHT22;11438;52.044;8.716;2022-12-18T07:50:34;-3.60;95.90
22544;DHT22;11438;52.044;8.716;2022-12-18T07:52:59;-3.60;95.90
22544;DHT22;11438;52.044;8.716;2022-12-18T07:55:29;-3.60;95.90
22544;DHT22;11438;52.044;8.716;2022-12-18T07:57:55;-3.60;96.00
22544;DHT22;11438;52.044;8.716;2022-12-18T08:00:21;-3.50;96.10
22544;DHT22;11438;52.044;8.716;2022-12-18T08:02:46;-3.50;96.10
22544;DHT22;11438;52.044;8.716;2022-12-18T08:05:12;-3.50;96.20
22544;DHT22;11438;52.044;8.716;2022-12-18T08:07:39;-3.50;96.20
22544;DHT22;11438;52.044;8.716;2022-12-18T08:10:05;-3.50;96.20
22544;DHT22;11438;52.044;8.716;2022-12-18T08:12:30;-3.50;96.30
22544;DHT22;11438;52.044;8.716;2022-12-18T08:14:56;-3.40;96.30
22544;DHT22;11438;52.044;8.716;2022-12-18T08:17:21;-3.40;96.30
22544;DHT22;11438;52.044;8.716;2022-12-18T08:19:47;-3.40;96.40
22544;DHT22;11438;52.044;8.716;2022-12-18T08:22:12;-3.40;96.40
22544;DHT22;11438;52.044;8.716;2022-12-18T08:24:38;-3.30;96.40
22544;DHT22;11438;52.044;8.716;2022-12-18T08:27:04;-3.30;96.40
22544;DHT22;11438;52.044;8.716;2022-12-18T08:29:29;-3.30;96.40
22544;DHT22;11438;52.044;8.716;2022-12-18T08:31:55;-3.30;96.50
22544;DHT22;11438;52.044;8.716;2022-12-18T08:34:21;-3.30;96.60
22544;DHT22;11438;52.044;8.716;2022-12-18T08:36:46;-3.20;96.60
22544;DHT22;11438;52.044;8.716;2022-12-18T08:39:12;-3.20;96.70
22544;DHT22;11438;52.044;8.716;2022-12-18T08:41:37;-3.20;96.70
22544;DHT22;11438;52.044;8.716;2022-12-18T08:44:03;-3.10;96.80
22544;DHT22;11438;52.044;8.716;2022-12-18T08:46:47;-3.10;96.80
22544;DHT22;11438;52.044;8.716;2022-12-18T08:49:13;-3.10;96.90
22544;DHT22;11438;52.044;8.716;2022-12-18T08:51:38;-3.00;97.00
22544;DHT22;11438;52.044;8.716;2022-12-18T08:54:05;-2.90;97.10
22544;DHT22;11438;52.044;8.716;2022-12-18T08:56:31;-2.90;97.20
22544;DHT22;11438;52.044;8.716;2022-12-18T08:58:57;-2.80;97.20
22544;DHT22;11438;52.044;8.716;2022-12-18T09:01:23;-2.80;97.30
22544;DHT22;11438;52.044;8.716;2022-12-18T09:03:49;-2.80;97.30
22544;DHT22;11438;52.044;8.716;2022-12-18T09:06:20;-2.70;97.40
22544;DHT22;11438;52.044;8.716;2022-12-18T09:08:46;-2.70;97.50
22544;DHT22;11438;52.044;8.716;2022-12-18T09:11:14;-2.60;97.50
22544;DHT22;11438;52.044;8.716;2022-12-18T09:13:43;-2.60;97.50
22544;DHT22;11438;52.044;8.716;2022-12-18T09:16:08;-2.50;97.60
22544;DHT22;11438;52.044;8.716;2022-12-18T09:18:34;-2.40;97.70
22544;DHT22;11438;52.044;8.716;2022-12-18T09:20:59;-2.40;97.70
22544;DHT22;11438;52.044;8.716;2022-12-18T09:23:25;-2.30;97.80
22544;DHT22;11438;52.044;8.716;2022-12-18T09:25:50;-2.30;97.80
22544;DHT22;11438;52.044;8.716;2022-12-18T09:28:18;-2.20;97.80
22544;DHT22;11438;52.044;8.716;2022-12-18T09:30:46;-2.10;97.90
22544;DHT22;11438;52.044;8.716;2022-12-18T09:33:12;-2.00;98.00
22544;DHT22;11438;52.044;8.716;2022-12-18T09:35:40;-2.00;98.00
22544;DHT22;11438;52.044;8.716;2022-12-18T09:38:07;-1.90;98.00
22544;DHT22;11438;52.044;8.716;2022-12-18T09:40:45;-1.80;98.10
22544;DHT22;11438;52.044;8.716;2022-12-18T09:46:05;-1.70;98.10
22544;DHT22;11438;52.044;8.716;2022-12-18T09:48:35;-1.60;98.50
22544;DHT22;11438;52.044;8.716;2022-12-18T09:51:05;-1.50;98.20
22544;DHT22;11438;52.044;8.716;2022-12-18T09:53:35;-1.50;98.20
22544;DHT22;11438;52.044;8.716;2022-12-18T09:56:04;-1.40;98.30
22544;DHT22;11438;52.044;8.716;2022-12-18T09:58:41;-1.40;98.30
22544;DHT22;11438;52.044;8.716;2022-12-18T10:01:15;-1.30;98.40
22544;DHT22;11438;52.044;8.716;2022-12-18T10:03:43;-1.20;98.50
22544;DHT22;11438;52.044;8.716;2022-12-18T10:12:02;-1.00;98.50
22544;DHT22;11438;52.044;8.716;2022-12-18T10:17:40;-0.80;98.40
22544;DHT22;11438;52.044;8.716;2022-12-18T10:22:54;-0.70;98.40
22544;DHT22;11438;52.044;8.716;2022-12-18T10:28:21;-0.60;98.30
22544;DHT22;11438;52.044;8.716;2022-12-18T10:30:48;-0.50;98.20
22544;DHT22;11438;52.044;8.716;2022-12-18T10:33:18;-0.40;98.30
22544;DHT22;11438;52.044;8.716;2022-12-18T10:35:45;-0.40;98.30
22544;DHT22;11438;52.044;8.716;2022-12-18T10:40:49;-0.20;98.20
22544;DHT22;11438;52.044;8.716;2022-12-18T10:43:19;-0.20;98.10
22544;DHT22;11438;52.044;8.716;2022-12-18T10:45:59;-0.10;98.10
22544;DHT22;11438;52.044;8.716;2022-12-18T10:48:25;0.00;97.90
22544;DHT22;11438;52.044;8.716;2022-12-18T10:50:52;0.10;97.80
22544;DHT22;11438;52.044;8.716;2022-12-18T10:53:26;0.10;97.80
22544;DHT22;11438;52.044;8.716;2022-12-18T10:55:55;0.20;97.60
22544;DHT22;11438;52.044;8.716;2022-12-18T10:58:57;0.30;97.60
22544;DHT22;11438;52.044;8.716;2022-12-18T11:01:23;0.30;97.50
22544;DHT22;11438;52.044;8.716;2022-12-18T11:06:24;0.50;97.40
22544;DHT22;11438;52.044;8.716;2022-12-18T11:09:04;0.50;97.40
22544;DHT22;11438;52.044;8.716;2022-12-18T11:11:31;0.60;97.20
22544;DHT22;11438;52.044;8.716;2022-12-18T11:14:01;0.70;97.00
22544;DHT22;11438;52.044;8.716;2022-12-18T11:16:28;0.70;96.90
22544;DHT22;11438;52.044;8.716;2022-12-18T11:19:13;0.70;96.90
22544;DHT22;11438;52.044;8.716;2022-12-18T11:21:41;0.80;96.70
22544;DHT22;11438;52.044;8.716;2022-12-18T11:26:49;0.80;96.60
22544;DHT22;11438;52.044;8.716;2022-12-18T11:29:18;0.90;96.90
22544;DHT22;11438;52.044;8.716;2022-12-18T11:31:43;0.90;96.40
22544;DHT22;11438;52.044;8.716;2022-12-18T11:34:14;0.90;96.30
22544;DHT22;11438;52.044;8.716;2022-12-18T11:36:44;0.90;96.30
22544;DHT22;11438;52.044;8.716;2022-12-18T11:39:35;0.90;96.30
22544;DHT22;11438;52.044;8.716;2022-12-18T11:42:10;0.90;96.20
22544;DHT22;11438;52.044;8.716;2022-12-18T11:44:55;1.00;96.10
22544;DHT22;11438;52.044;8.716;2022-12-18T11:50:17;1.00;96.00
22544;DHT22;11438;52.044;8.716;2022-12-18T11:52:43;1.00;96.10
22544;DHT22;11438;52.044;8.716;2022-12-18T11:55:15;1.10;96.10
22544;DHT22;11438;52.044;8.716;2022-12-18T11:58:00;1.10;95.90
22544;DHT22;11438;52.044;8.716;2022-12-18T12:00:27;1.10;96.00
22544;DHT22;11438;52.044;8.716;2022-12-18T12:08:43;1.20;95.90
22544;DHT22;11438;52.044;8.716;2022-12-18T12:14:16;1.30;95.60
22544;DHT22;11438;52.044;8.716;2022-12-18T12:22:22;1.40;95.50
22544;DHT22;11438;52.044;8.716;2022-12-18T12:28:05;1.50;95.50
22544;DHT22;11438;52.044;8.716;2022-12-18T12:30:58;1.50;95.40
22544;DHT22;11438;52.044;8.716;2022-12-18T12:38:28;1.60;95.20
22544;DHT22;11438;52.044;8.716;2022-12-18T12:41:02;1.60;95.30
22544;DHT22;11438;52.044;8.716;2022-12-18T12:43:44;1.70;95.20
22544;DHT22;11438;52.044;8.716;2022-12-18T12:46:15;1.60;94.90
22544;DHT22;11438;52.044;8.716;2022-12-18T12:49:04;1.70;95.00
22544;DHT22;11438;52.044;8.716;2022-12-18T12:51:41;1.70;95.00
22544;DHT22;11438;52.044;8.716;2022-12-18T12:54:15;1.70;95.00
22544;DHT22;11438;52.044;8.716;2022-12-18T12:56:48;1.70;94.90
22544;DHT22;11438;52.044;8.716;2022-12-18T13:02:39;1.80;94.90
22544;DHT22;11438;52.044;8.716;2022-12-18T13:05:34;1.80;95.00
22544;DHT22;11438;52.044;8.716;2022-12-18T13:08:06;1.80;94.90
22544;DHT22;11438;52.044;8.716;2022-12-18T13:10:40;1.90;94.90
22544;DHT22;11438;52.044;8.716;2022-12-18T13:13:11;1.90;94.80
22544;DHT22;11438;52.044;8.716;2022-12-18T13:15:50;1.90;94.70
22544;DHT22;11438;52.044;8.716;2022-12-18T13:18:28;1.90;94.70
22544;DHT22;11438;52.044;8.716;2022-12-18T13:25:55;2.00;94.70
22544;DHT22;11438;52.044;8.716;2022-12-18T13:36:46;2.00;94.50
22544;DHT22;11438;52.044;8.716;2022-12-18T13:41:45;2.00;94.30
22544;DHT22;11438;52.044;8.716;2022-12-18T13:46:49;2.00;94.30
22544;DHT22;11438;52.044;8.716;2022-12-18T13:49:22;2.00;94.40
22544;DHT22;11438;52.044;8.716;2022-12-18T13:51:54;2.00;94.30
22544;DHT22;11438;52.044;8.716;2022-12-18T13:55:03;2.10;94.10
22544;DHT22;11438;52.044;8.716;2022-12-18T13:57:35;2.10;94.10
22544;DHT22;11438;52.044;8.716;2022-12-18T14:02:50;2.10;94.00
22544;DHT22;11438;52.044;8.716;2022-12-18T14:05:32;2.10;94.10
22544;DHT22;11438;52.044;8.716;2022-12-18T14:08:13;2.10;94.00
22544;DHT22;11438;52.044;8.716;2022-12-18T14:10:45;2.20;94.10
22544;DHT22;11438;52.044;8.716;2022-12-18T14:13:18;2.20;94.10
22544;DHT22;11438;52.044;8.716;2022-12-18T14:15:47;2.20;93.90
22544;DHT22;11438;52.044;8.716;2022-12-18T14:18:26;2.20;94.00
22544;DHT22;11438;52.044;8.716;2022-12-18T14:20:58;2.20;93.90
22544;DHT22;11438;52.044;8.716;2022-12-18T14:23:44;2.20;93.80
22544;DHT22;11438;52.044;8.716;2022-12-18T14:28:45;2.30;93.70
22544;DHT22;11438;52.044;8.716;2022-12-18T14:31:22;2.30;93.80
22544;DHT22;11438;52.044;8.716;2022-12-18T14:33:48;2.20;93.70
22544;DHT22;11438;52.044;8.716;2022-12-18T14:36:20;2.20;93.70
22544;DHT22;11438;52.044;8.716;2022-12-18T14:38:54;2.20;93.60
22544;DHT22;11438;52.044;8.716;2022-12-18T14:41:21;2.30;93.60
22544;DHT22;11438;52.044;8.716;2022-12-18T14:43:48;2.30;93.30
22544;DHT22;11438;52.044;8.716;2022-12-18T14:46:37;2.30;93.40
22544;DHT22;11438;52.044;8.716;2022-12-18T14:49:32;2.30;93.20
22544;DHT22;11438;52.044;8.716;2022-12-18T14:52:03;2.30;93.30
22544;DHT22;11438;52.044;8.716;2022-12-18T14:54:30;2.30;93.30
22544;DHT22;11438;52.044;8.716;2022-12-18T14:57:25;2.30;93.40
22544;DHT22;11438;52.044;8.716;2022-12-18T14:59:52;2.30;93.10
22544;DHT22;11438;52.044;8.716;2022-12-18T15:05:00;2.30;93.30
22544;DHT22;11438;52.044;8.716;2022-12-18T15:07:26;2.30;93.10
22544;DHT22;11438;52.044;8.716;2022-12-18T15:12:42;2.30;93.00
22544;DHT22;11438;52.044;8.716;2022-12-18T15:25:40;2.30;92.90
22544;DHT22;11438;52.044;8.716;2022-12-18T15:28:26;2.40;93.10
22544;DHT22;11438;52.044;8.716;2022-12-18T15:33:44;2.40;92.90
22544;DHT22;11438;52.044;8.716;2022-12-18T15:36:16;2.40;92.80
22544;DHT22;11438;52.044;8.716;2022-12-18T15:38:46;2.40;92.80
22544;DHT22;11438;52.044;8.716;2022-12-18T15:41:16;2.40;92.90
22544;DHT22;11438;52.044;8.716;2022-12-18T15:43:42;2.40;92.90
22544;DHT22;11438;52.044;8.716;2022-12-18T15:48:44;2.50;92.90
22544;DHT22;11438;52.044;8.716;2022-12-18T15:51:32;2.50;92.80
22544;DHT22;11438;52.044;8.716;2022-12-18T15:54:04;2.50;92.70
22544;DHT22;11438;52.044;8.716;2022-12-18T15:56:31;2.50;92.70
22544;DHT22;11438;52.044;8.716;2022-12-18T15:59:20;2.50;92.80
22544;DHT22;11438;52.044;8.716;2022-12-18T16:01:48;2.50;92.70
22544;DHT22;11438;52.044;8.716;2022-12-18T16:04:16;2.50;92.60
22544;DHT22;11438;52.044;8.716;2022-12-18T16:06:42;2.50;92.60
22544;DHT22;11438;52.044;8.716;2022-12-18T16:09:08;2.60;92.60
22544;DHT22;11438;52.044;8.716;2022-12-18T16:11:36;2.50;92.60
22544;DHT22;11438;52.044;8.716;2022-12-18T16:14:21;2.50;92.50
22544;DHT22;11438;52.044;8.716;2022-12-18T16:16:50;2.50;92.50
22544;DHT22;11438;52.044;8.716;2022-12-18T16:19:16;2.60;92.60
22544;DHT22;11438;52.044;8.716;2022-12-18T16:21:42;2.60;92.70
22544;DHT22;11438;52.044;8.716;2022-12-18T16:24:20;2.60;92.50
22544;DHT22;11438;52.044;8.716;2022-12-18T16:26:49;2.60;92.40
22544;DHT22;11438;52.044;8.716;2022-12-18T16:29:16;2.60;92.60
22544;DHT22;11438;52.044;8.716;2022-12-18T16:31:42;2.60;92.50
22544;DHT22;11438;52.044;8.716;2022-12-18T16:36:39;2.70;92.50
22544;DHT22;11438;52.044;8.716;2022-12-18T16:39:05;2.70;92.40
22544;DHT22;11438;52.044;8.716;2022-12-18T16:41:31;2.70;92.30
22544;DHT22;11438;52.044;8.716;2022-12-18T16:43:57;2.60;92.10
22544;DHT22;11438;52.044;8.716;2022-12-18T16:46:23;2.70;92.20
22544;DHT22;11438;52.044;8.716;2022-12-18T16:48:48;2.70;92.20
22544;DHT22;11438;52.044;8.716;2022-12-18T16:51:14;2.70;92.30
22544;DHT22;11438;52.044;8.716;2022-12-18T16:53:40;2.70;92.40
22544;DHT22;11438;52.044;8.716;2022-12-18T16:56:05;2.70;92.30
22544;DHT22;11438;52.044;8.716;2022-12-18T16:58:31;2.70;92.10
22544;DHT22;11438;52.044;8.716;2022-12-18T17:00:57;2.70;91.90
22544;DHT22;11438;52.044;8.716;2022-12-18T17:03:22;2.70;91.90
22544;DHT22;11438;52.044;8.716;2022-12-18T17:05:48;2.70;91.80
22544;DHT22;11438;52.044;8.716;2022-12-18T17:08:13;2.70;92.00
22544;DHT22;11438;52.044;8.716;2022-12-18T17:10:39;2.70;91.90
22544;DHT22;11438;52.044;8.716;2022-12-18T17:13:04;2.70;91.90
22544;DHT22;11438;52.044;8.716;2022-12-18T17:15:30;2.70;91.90
22544;DHT22;11438;52.044;8.716;2022-12-18T17:17:58;2.70;91.90
22544;DHT22;11438;52.044;8.716;2022-12-18T17:20:24;2.80;91.80
22544;DHT22;11438;52.044;8.716;2022-12-18T17:22:49;2.80;91.70
22544;DHT22;11438;52.044;8.716;2022-12-18T17:25:15;2.70;91.80
22544;DHT22;11438;52.044;8.716;2022-12-18T17:27:40;2.80;91.90
22544;DHT22;11438;52.044;8.716;2022-12-18T17:30:07;2.80;91.80
22544;DHT22;11438;52.044;8.716;2022-12-18T17:32:32;2.80;91.80
22544;DHT22;11438;52.044;8.716;2022-12-18T17:34:58;2.80;91.70
22544;DHT22;11438;52.044;8.716;2022-12-18T17:37:23;2.80;91.70
22544;DHT22;11438;52.044;8.716;2022-12-18T17:39:49;2.90;91.80
22544;DHT22;11438;52.044;8.716;2022-12-18T17:42:15;2.90;91.70
22544;DHT22;11438;52.044;8.716;2022-12-18T17:44:41;2.90;91.80
22544;DHT22;11438;52.044;8.716;2022-12-18T17:47:06;2.90;91.50
22544;DHT22;11438;52.044;8.716;2022-12-18T17:49:34;2.90;91.60
22544;DHT22;11438;52.044;8.716;2022-12-18T17:51:59;2.90;91.30
22544;DHT22;11438;52.044;8.716;2022-12-18T17:54:25;2.90;91.30
22544;DHT22;11438;52.044;8.716;2022-12-18T17:56:50;2.90;91.40
22544;DHT22;11438;52.044;8.716;2022-12-18T17:59:16;2.90;91.30
22544;DHT22;11438;52.044;8.716;2022-12-18T18:01:41;3.00;91.50
22544;DHT22;11438;52.044;8.716;2022-12-18T18:04:07;3.00;91.40